createdAt,value
2018-09-29T00:02:25.193Z,3.43
2018-09-29T00:04:52.174Z,3.23
2018-09-29T00:07:19.211Z,3.53
2018-09-29T00:09:46.205Z,3.00
2018-09-29T00:12:13.190Z,3.00
2018-09-29T00:14:40.182Z,3.37
2018-09-29T00:17:07.138Z,3.70
2018-09-29T00:19:34.094Z,2.97
2018-09-29T00:22:01.086Z,3.10
2018-09-29T00:24:28.082Z,3.70
2018-09-29T00:26:55.059Z,3.50
2018-09-29T00:29:22.027Z,3.77
2018-09-29T00:31:49.004Z,3.87
2018-09-29T00:34:15.974Z,3.47
2018-09-29T00:36:42.962Z,3.53
2018-09-29T00:39:09.950Z,3.97
2018-09-29T00:41:36.938Z,4.20
2018-09-29T00:44:03.974Z,3.97
2018-09-29T00:46:30.970Z,3.43
2018-09-29T00:48:57.937Z,3.67
2018-09-29T00:51:25.083Z,3.70
2018-09-29T00:53:52.076Z,3.13
2018-09-29T00:56:19.225Z,3.30
2018-09-29T00:58:46.890Z,3.20
2018-09-29T01:01:15.286Z,3.50
2018-09-29T01:03:42.332Z,3.33
2018-09-29T01:06:09.343Z,3.70
2018-09-29T01:08:36.306Z,3.00
2018-09-29T01:11:03.594Z,2.97
2018-09-29T01:13:32.585Z,3.00
2018-09-29T01:16:01.466Z,3.20
2018-09-29T01:18:28.451Z,2.93
2018-09-29T01:20:55.416Z,3.30
2018-09-29T01:23:23.054Z,2.90
2018-09-29T01:25:50.772Z,3.00
2018-09-29T01:28:20.700Z,2.70
2018-09-29T01:33:25.462Z,3.43
2018-09-29T01:35:53.041Z,3.40
2018-09-29T01:38:20.922Z,2.93
2018-09-29T01:40:48.463Z,3.10
2018-09-29T01:43:15.661Z,2.63
2018-09-29T01:45:42.611Z,2.70
2018-09-29T01:48:09.597Z,3.10
2018-09-29T01:50:36.577Z,2.70
2018-09-29T01:53:04.546Z,3.10
2018-09-29T01:55:31.545Z,2.60
2018-09-29T01:57:58.551Z,2.60
2018-09-29T02:00:25.521Z,3.17
2018-09-29T02:02:52.792Z,2.70
2018-09-29T02:05:19.779Z,2.70
2018-09-29T02:07:47.073Z,3.00
2018-09-29T02:10:14.069Z,3.30
2018-09-29T02:12:41.174Z,2.50
2018-09-29T02:15:08.986Z,2.80
2018-09-29T02:17:35.990Z,3.10
2018-09-29T02:20:04.182Z,3.27
2018-09-29T02:22:31.516Z,3.20
2018-09-29T02:24:59.958Z,2.73
2018-09-29T02:27:27.767Z,2.80
2018-09-29T02:29:54.738Z,2.80
2018-09-29T02:32:21.697Z,3.17
2018-09-29T02:34:48.649Z,3.27
2018-09-29T02:37:15.625Z,2.97
2018-09-29T02:39:42.612Z,2.87
2018-09-29T02:42:09.603Z,3.37
2018-09-29T02:44:36.555Z,3.20
2018-09-29T02:47:03.538Z,2.70
2018-09-29T02:49:30.498Z,3.63
2018-09-29T02:51:57.465Z,3.17
2018-09-29T02:54:24.532Z,3.43
2018-09-29T02:56:51.494Z,3.77
2018-09-29T02:59:18.487Z,3.33
2018-09-29T03:01:45.468Z,2.77
2018-09-29T03:04:12.442Z,3.40
2018-09-29T03:06:39.467Z,3.30
2018-09-29T03:09:07.018Z,3.13
2018-09-29T03:11:33.994Z,2.90
2018-09-29T03:14:00.964Z,3.00
2018-09-29T03:16:27.930Z,2.90
2018-09-29T03:18:54.902Z,2.67
2018-09-29T03:21:21.860Z,2.90
2018-09-29T03:23:48.829Z,2.90
2018-09-29T03:26:15.817Z,2.70
2018-09-29T03:28:42.794Z,2.30
2018-09-29T03:31:09.753Z,2.80
2018-09-29T03:33:36.751Z,3.00
2018-09-29T03:36:03.698Z,2.63
2018-09-29T03:38:30.670Z,3.07
2018-09-29T03:40:57.667Z,2.87
2018-09-29T03:43:24.651Z,2.53
2018-09-29T03:45:55.463Z,2.70
2018-09-29T03:48:22.420Z,2.83
2018-09-29T03:50:49.379Z,3.10
2018-09-29T03:53:16.447Z,3.10
2018-09-29T03:55:43.378Z,2.30
2018-09-29T03:58:10.340Z,3.17
2018-09-29T04:00:37.324Z,2.70
2018-09-29T04:03:04.320Z,2.63
2018-09-29T04:05:38.074Z,3.23
2018-09-29T04:08:05.036Z,2.37
2018-09-29T04:10:31.977Z,2.90
2018-09-29T04:12:58.955Z,2.57
2018-09-29T04:15:25.905Z,2.80
2018-09-29T04:17:52.853Z,2.73
2018-09-29T04:20:19.817Z,3.40
2018-09-29T04:22:46.753Z,3.03
2018-09-29T04:25:13.707Z,3.03
2018-09-29T04:27:40.670Z,2.63
2018-09-29T04:30:07.650Z,3.00
2018-09-29T04:32:34.610Z,2.53
2018-09-29T04:35:01.565Z,2.53
2018-09-29T04:37:28.513Z,2.97
2018-09-29T04:39:55.481Z,2.73
2018-09-29T04:42:22.414Z,3.20
2018-09-29T04:44:49.374Z,3.13
2018-09-29T04:47:16.325Z,3.00
2018-09-29T04:49:43.294Z,2.70
2018-09-29T04:52:10.258Z,3.30
2018-09-29T04:54:37.224Z,2.63
2018-09-29T04:57:04.176Z,2.73
2018-09-29T04:59:31.155Z,2.53
2018-09-29T05:01:58.109Z,2.63
2018-09-29T05:04:25.158Z,3.30
2018-09-29T05:06:52.125Z,3.00
2018-09-29T05:09:19.078Z,3.07
2018-09-29T05:11:46.046Z,4.33
2018-09-29T05:14:13.003Z,3.10
2018-09-29T05:16:39.964Z,3.60
2018-09-29T05:19:06.914Z,3.67
2018-09-29T05:21:33.873Z,3.80
2018-09-29T05:24:00.832Z,3.57
2018-09-29T05:26:27.791Z,3.60
2018-09-29T05:28:55.063Z,2.80
2018-09-29T05:31:22.027Z,3.00
2018-09-29T05:33:48.978Z,3.40
2018-09-29T05:36:15.952Z,3.03
2018-09-29T05:41:16.629Z,3.13
2018-09-29T05:43:43.569Z,3.17
2018-09-29T05:46:10.522Z,3.50
2018-09-29T05:48:37.485Z,3.43
2018-09-29T05:51:04.438Z,3.50
2018-09-29T05:53:31.429Z,4.07
2018-09-29T05:55:58.370Z,3.63
2018-09-29T05:58:25.503Z,3.70
2018-09-29T06:00:52.456Z,3.40
2018-09-29T06:03:19.402Z,3.00
2018-09-29T06:05:46.391Z,3.77
2018-09-29T06:08:13.328Z,6.30
2018-09-29T06:10:47.254Z,6.27
2018-09-29T06:13:14.268Z,4.30
2018-09-29T06:15:41.166Z,4.83
2018-09-29T06:18:08.114Z,4.60
2018-09-29T06:20:35.065Z,4.60
2018-09-29T06:25:35.593Z,4.67
2018-09-29T06:28:02.690Z,4.33
2018-09-29T06:30:29.525Z,4.20
2018-09-29T06:32:56.566Z,3.97
2018-09-29T06:35:23.533Z,4.20
2018-09-29T06:37:51.250Z,4.20
2018-09-29T06:40:18.220Z,4.30
2018-09-29T06:42:45.178Z,3.77
2018-09-29T06:45:12.172Z,3.97
2018-09-29T06:47:45.847Z,3.70
2018-09-29T06:50:12.774Z,4.40
2018-09-29T06:52:39.726Z,3.73
2018-09-29T06:55:06.553Z,4.30
2018-09-29T06:57:33.493Z,4.00
2018-09-29T07:00:00.461Z,3.70
2018-09-29T07:02:27.430Z,3.87
2018-09-29T07:04:54.388Z,3.23
2018-09-29T07:07:21.371Z,3.77
2018-09-29T07:09:48.341Z,3.63
2018-09-29T07:12:15.309Z,3.80
2018-09-29T07:14:42.256Z,3.20
2018-09-29T07:17:09.255Z,3.23
2018-09-29T07:19:42.779Z,3.80
2018-09-29T07:22:09.745Z,3.10
2018-09-29T07:24:36.714Z,3.53
2018-09-29T07:27:03.700Z,3.30
2018-09-29T07:29:30.654Z,3.50
2018-09-29T07:31:57.602Z,3.23
2018-09-29T07:34:24.650Z,3.20
2018-09-29T07:36:51.625Z,2.90
2018-09-29T07:39:18.578Z,3.33
2018-09-29T07:41:45.537Z,2.77
2018-09-29T07:44:12.500Z,3.20
2018-09-29T07:46:39.498Z,3.30
2018-09-29T07:49:06.644Z,3.43
2018-09-29T07:51:33.606Z,2.80
2018-09-29T07:54:00.544Z,3.13
2018-09-29T07:56:27.537Z,3.07
2018-09-29T07:58:54.444Z,2.53
2018-09-29T08:01:21.380Z,2.90
2018-09-29T08:03:48.306Z,2.60
2018-09-29T08:06:15.278Z,2.10
2018-09-29T08:08:42.238Z,2.47
2018-09-29T08:11:09.177Z,2.20
2018-09-29T08:13:36.129Z,2.70
2018-09-29T08:16:03.089Z,2.73
2018-09-29T08:18:30.045Z,2.67
2018-09-29T08:20:56.989Z,3.53
2018-09-29T08:23:23.927Z,2.47
2018-09-29T08:25:50.873Z,2.20
2018-09-29T08:28:17.801Z,2.37
2018-09-29T08:30:44.752Z,1.90
2018-09-29T08:33:11.685Z,2.70
2018-09-29T08:35:38.617Z,2.17
2018-09-29T08:38:05.615Z,3.77
2018-09-29T08:40:32.562Z,3.10
2018-09-29T08:42:59.542Z,2.23
2018-09-29T08:45:26.488Z,2.03
2018-09-29T08:47:53.473Z,2.73
2018-09-29T08:50:20.415Z,2.40
2018-09-29T08:52:47.369Z,2.60
2018-09-29T08:55:14.324Z,1.90
2018-09-29T08:57:41.247Z,2.30
2018-09-29T09:00:08.216Z,2.30
2018-09-29T09:02:35.199Z,2.03
2018-09-29T09:05:02.166Z,1.83
2018-09-29T09:07:29.111Z,2.00
2018-09-29T09:09:56.040Z,2.00
2018-09-29T09:12:23.015Z,2.30
2018-09-29T09:14:49.964Z,2.10
2018-09-29T09:17:16.920Z,1.90
2018-09-29T09:19:43.882Z,2.00
2018-09-29T09:22:10.825Z,2.23
2018-09-29T09:24:37.761Z,2.20
2018-09-29T09:27:04.746Z,1.90
2018-09-29T09:29:31.677Z,1.97
2018-09-29T09:31:58.625Z,2.17
2018-09-29T09:34:25.569Z,1.73
2018-09-29T09:36:52.509Z,2.90
2018-09-29T09:39:19.454Z,1.60
2018-09-29T09:41:46.405Z,1.83
2018-09-29T09:44:13.342Z,1.60
2018-09-29T09:46:40.289Z,2.30
2018-09-29T09:49:07.226Z,1.77
2018-09-29T09:51:34.159Z,1.60
2018-09-29T09:54:01.117Z,1.60
2018-09-29T09:56:28.064Z,2.10
2018-09-29T09:58:55.105Z,1.70
2018-09-29T10:01:27.736Z,1.87
2018-09-29T10:03:54.697Z,1.70
2018-09-29T10:06:21.682Z,1.97
2018-09-29T10:08:48.622Z,1.83
2018-09-29T10:11:15.551Z,1.50
2018-09-29T10:13:42.510Z,1.67
2018-09-29T10:16:09.469Z,2.17
2018-09-29T10:18:36.441Z,1.87
2018-09-29T10:21:03.390Z,1.93
2018-09-29T10:23:30.339Z,2.00
2018-09-29T10:25:57.289Z,2.03
2018-09-29T10:28:24.242Z,1.97
2018-09-29T10:30:51.190Z,1.57
2018-09-29T10:33:18.146Z,1.93
2018-09-29T10:35:45.093Z,2.00
2018-09-29T10:38:12.034Z,2.13
2018-09-29T10:40:38.979Z,2.27
2018-09-29T10:43:05.958Z,1.70
2018-09-29T10:45:32.891Z,1.90
2018-09-29T10:47:59.861Z,1.83
2018-09-29T10:50:26.821Z,1.90
2018-09-29T10:52:53.821Z,1.90
2018-09-29T10:55:20.730Z,1.67
2018-09-29T10:57:47.677Z,1.90
2018-09-29T11:00:14.608Z,2.00
2018-09-29T11:02:41.612Z,1.70
2018-09-29T11:05:08.652Z,1.80
2018-09-29T11:07:35.497Z,1.60
2018-09-29T11:10:02.481Z,1.70
2018-09-29T11:12:29.424Z,1.70
2018-09-29T11:14:56.445Z,1.63
2018-09-29T11:17:23.391Z,1.40
2018-09-29T11:19:50.370Z,1.80
2018-09-29T11:22:17.321Z,1.80
2018-09-29T11:24:44.265Z,1.70
2018-09-29T11:27:11.209Z,1.60
2018-09-29T11:29:38.193Z,1.60
2018-09-29T11:32:05.145Z,1.60
2018-09-29T11:34:32.124Z,1.77
2018-09-29T11:36:59.105Z,1.80
2018-09-29T11:39:26.260Z,1.90
2018-09-29T11:41:53.032Z,1.47
2018-09-29T11:44:19.995Z,1.80
2018-09-29T11:46:46.947Z,1.80
2018-09-29T11:49:13.896Z,1.30
2018-09-29T11:51:40.841Z,1.80
2018-09-29T11:54:07.811Z,1.90
2018-09-29T11:56:34.774Z,1.63
2018-09-29T11:59:02.006Z,1.73
2018-09-29T12:01:28.998Z,2.00
2018-09-29T12:03:56.049Z,2.03
2018-09-29T12:06:23.074Z,1.73
2018-09-29T12:08:49.968Z,1.70
2018-09-29T12:11:17.126Z,1.93
2018-09-29T12:13:44.186Z,2.13
2018-09-29T12:16:11.121Z,2.13
2018-09-29T12:18:38.085Z,1.90
2018-09-29T12:21:05.076Z,1.60
2018-09-29T12:23:32.059Z,2.30
2018-09-29T12:25:58.997Z,1.93
2018-09-29T12:28:25.979Z,2.00
2018-09-29T12:30:52.914Z,1.70
2018-09-29T12:33:19.846Z,1.90
2018-09-29T12:35:46.796Z,1.70
2018-09-29T12:38:13.733Z,2.07
2018-09-29T12:40:40.665Z,1.60
2018-09-29T12:43:07.608Z,1.33
2018-09-29T12:45:34.666Z,1.60
2018-09-29T12:48:01.619Z,1.60
2018-09-29T12:50:28.571Z,1.50
2018-09-29T12:52:55.552Z,1.53
2018-09-29T12:55:22.505Z,1.60
2018-09-29T12:57:49.443Z,1.33
2018-09-29T13:00:16.402Z,1.53
2018-09-29T13:02:43.347Z,1.50
2018-09-29T13:05:10.345Z,1.57
2018-09-29T13:07:37.245Z,1.53
2018-09-29T13:10:04.255Z,1.57
2018-09-29T13:12:32.648Z,1.60
2018-09-29T13:14:59.895Z,1.73
2018-09-29T13:17:27.539Z,1.57
2018-09-29T13:19:54.539Z,1.60
2018-09-29T13:22:21.472Z,1.93
2018-09-29T13:24:49.446Z,1.80
2018-09-29T13:27:16.377Z,1.33
2018-09-29T13:29:44.533Z,1.70
2018-09-29T13:32:18.138Z,1.93
2018-09-29T13:34:52.072Z,1.50
2018-09-29T13:37:19.030Z,1.90
2018-09-29T13:39:45.973Z,1.73
2018-09-29T13:42:12.891Z,1.57
2018-09-29T13:44:39.838Z,1.57
2018-09-29T13:47:06.813Z,1.67
2018-09-29T13:49:33.758Z,1.97
2018-09-29T13:52:00.679Z,1.80
2018-09-29T13:54:27.637Z,1.70
2018-09-29T13:56:54.568Z,1.90
2018-09-29T13:59:21.530Z,2.10
2018-09-29T14:01:48.472Z,1.60
2018-09-29T14:04:15.405Z,1.90
2018-09-29T14:06:42.346Z,1.73
2018-09-29T14:09:09.841Z,1.70
2018-09-29T14:11:36.823Z,2.10
2018-09-29T14:14:05.270Z,1.77
2018-09-29T14:16:32.227Z,2.10
2018-09-29T14:18:59.196Z,2.00
2018-09-29T14:21:26.187Z,2.33
2018-09-29T14:23:53.114Z,2.93
2018-09-29T14:26:21.757Z,2.70
2018-09-29T14:28:48.696Z,2.70
2018-09-29T14:31:15.628Z,2.37
2018-09-29T14:33:42.709Z,3.53
2018-09-29T14:36:10.167Z,1.77
2018-09-29T14:38:37.144Z,2.10
2018-09-29T14:41:07.729Z,2.30
2018-09-29T14:43:34.820Z,2.50
2018-09-29T14:46:01.829Z,2.20
2018-09-29T14:48:28.777Z,2.40
2018-09-29T14:50:55.756Z,2.13
2018-09-29T14:53:22.689Z,2.07
2018-09-29T14:55:49.669Z,1.97
2018-09-29T14:58:16.639Z,2.13
2018-09-29T15:00:43.918Z,1.87
2018-09-29T15:03:10.872Z,2.07
2018-09-29T15:05:37.949Z,2.00
2018-09-29T15:08:05.036Z,1.97
2018-09-29T15:10:31.993Z,1.90
2018-09-29T15:12:58.958Z,1.90
2018-09-29T15:15:25.939Z,2.03
2018-09-29T15:17:52.901Z,1.80
2018-09-29T15:20:19.917Z,1.90
2018-09-29T15:22:46.854Z,2.03
2018-09-29T15:25:13.789Z,2.30
2018-09-29T15:27:40.950Z,2.30
2018-09-29T15:30:07.901Z,2.23
2018-09-29T15:32:34.836Z,2.27
2018-09-29T15:35:01.778Z,2.20
2018-09-29T15:37:28.713Z,2.20
2018-09-29T15:39:55.764Z,2.27
2018-09-29T15:42:22.755Z,2.37
2018-09-29T15:44:49.728Z,1.97
2018-09-29T15:47:16.614Z,2.47
2018-09-29T15:49:43.545Z,1.93
2018-09-29T15:52:10.496Z,1.90
2018-09-29T15:54:37.417Z,1.90
2018-09-29T15:57:04.374Z,1.97
2018-09-29T15:59:31.438Z,1.90
2018-09-29T16:01:58.394Z,1.80
2018-09-29T16:04:25.329Z,1.80
2018-09-29T16:06:52.266Z,1.87
2018-09-29T16:09:19.242Z,2.30
2018-09-29T16:11:46.187Z,2.10
2018-09-29T16:14:13.138Z,2.40
2018-09-29T16:16:40.096Z,2.50
2018-09-29T16:19:07.093Z,2.13
2018-09-29T16:21:34.107Z,2.20
2018-09-29T16:24:01.014Z,1.83
2018-09-29T16:26:27.966Z,2.10
2018-09-29T16:28:54.917Z,2.13
2018-09-29T16:31:21.848Z,2.83
2018-09-29T16:33:48.793Z,2.67
2018-09-29T16:36:15.731Z,2.90
2018-09-29T16:38:42.669Z,2.87
2018-09-29T16:41:09.589Z,3.97
2018-09-29T16:43:36.603Z,3.87
2018-09-29T16:46:03.599Z,3.53
2018-09-29T16:48:30.510Z,3.77
2018-09-29T16:50:57.490Z,2.97
2018-09-29T16:53:24.471Z,3.30
2018-09-29T16:55:51.406Z,3.50
2018-09-29T16:58:18.348Z,2.90
2018-09-29T17:00:45.282Z,2.87
2018-09-29T17:03:12.228Z,3.00
2018-09-29T17:05:39.148Z,3.40
2018-09-29T17:08:06.081Z,5.67
2018-09-29T17:10:33.025Z,4.30
2018-09-29T17:12:59.966Z,3.23
2018-09-29T17:15:26.925Z,2.87
2018-09-29T17:17:53.870Z,3.10
2018-09-29T17:20:20.818Z,2.97
2018-09-29T17:22:47.733Z,2.87
2018-09-29T17:25:15.502Z,2.43
2018-09-29T17:27:42.420Z,3.40
2018-09-29T17:30:09.397Z,3.30
2018-09-29T17:32:36.372Z,3.57
2018-09-29T17:35:03.574Z,3.53
2018-09-29T17:37:30.591Z,4.37
2018-09-29T17:39:57.541Z,4.43
2018-09-29T17:42:24.518Z,4.43
2018-09-29T17:44:54.356Z,10.37
2018-09-29T17:47:21.316Z,9.20
2018-09-29T17:49:48.280Z,8.13
2018-09-29T17:52:15.217Z,6.63
2018-09-29T17:54:42.149Z,7.07
2018-09-29T17:57:09.106Z,7.40
2018-09-29T17:59:36.135Z,7.83
2018-09-29T18:02:03.150Z,6.13
2018-09-29T18:04:30.188Z,5.20
2018-09-29T18:06:57.092Z,4.47
2018-09-29T18:09:24.026Z,4.30
2018-09-29T18:11:50.973Z,4.70
2018-09-29T18:14:17.936Z,4.63
2018-09-29T18:16:45.344Z,4.93
2018-09-29T18:19:12.457Z,4.93
2018-09-29T18:21:39.386Z,4.33
2018-09-29T18:24:06.364Z,4.47
2018-09-29T18:26:33.332Z,4.20
2018-09-29T18:29:00.296Z,4.30
2018-09-29T18:31:27.259Z,4.53
2018-09-29T18:33:54.236Z,5.67
2018-09-29T18:36:21.170Z,5.60
2018-09-29T18:38:48.124Z,6.03
2018-09-29T18:41:15.064Z,6.30
2018-09-29T18:43:42.026Z,5.63
2018-09-29T18:46:09.002Z,6.07
2018-09-29T18:48:35.976Z,6.77
2018-09-29T18:51:02.893Z,5.60
2018-09-29T18:53:29.826Z,4.80
2018-09-29T18:55:56.861Z,4.53
2018-09-29T19:00:57.337Z,4.83
2018-09-29T19:03:24.281Z,4.90
2018-09-29T19:05:51.229Z,4.70
2018-09-29T19:08:18.200Z,3.90
2018-09-29T19:10:45.133Z,3.70
2018-09-29T19:13:12.096Z,3.83
2018-09-29T19:15:39.061Z,4.20
2018-09-29T19:18:06.059Z,3.90
2018-09-29T19:20:33.289Z,4.47
2018-09-29T19:23:00.359Z,4.20
2018-09-29T19:25:27.279Z,4.63
2018-09-29T19:28:01.157Z,4.70
2018-09-29T19:30:28.089Z,4.17
2018-09-29T19:32:55.057Z,4.33
2018-09-29T19:35:22.022Z,4.20
2018-09-29T19:37:48.952Z,4.50
2018-09-29T19:40:15.910Z,4.33
2018-09-29T19:42:42.868Z,3.60
2018-09-29T19:45:09.837Z,3.23
2018-09-29T19:47:36.762Z,4.13
2018-09-29T19:50:03.733Z,3.67
2018-09-29T19:52:30.670Z,3.33
2018-09-29T19:54:57.613Z,4.60
2018-09-29T19:59:58.286Z,3.73
2018-09-29T20:02:25.251Z,4.57
2018-09-29T20:04:52.225Z,3.33
2018-09-29T20:07:19.185Z,3.90
2018-09-29T20:09:46.136Z,3.80
2018-09-29T20:12:13.077Z,3.40
2018-09-29T20:14:40.044Z,4.90
2018-09-29T20:17:06.986Z,4.20
2018-09-29T20:19:33.939Z,3.60
2018-09-29T20:22:00.905Z,3.30
2018-09-29T20:24:27.944Z,3.10
2018-09-29T20:26:54.831Z,3.57
2018-09-29T20:29:21.805Z,3.57
2018-09-29T20:31:48.754Z,3.63
2018-09-29T20:34:15.717Z,3.50
2018-09-29T20:36:42.678Z,3.80
2018-09-29T20:39:11.906Z,3.40
2018-09-29T20:41:39.124Z,3.70
2018-09-29T20:44:06.076Z,2.93
2018-09-29T20:46:33.025Z,3.07
2018-09-29T20:48:59.985Z,3.10
2018-09-29T20:51:26.921Z,2.97
2018-09-29T20:53:54.152Z,3.27
2018-09-29T20:56:21.087Z,3.10
2018-09-29T20:58:54.751Z,3.53
2018-09-29T21:01:21.740Z,2.97
2018-09-29T21:03:48.738Z,3.07
2018-09-29T21:06:15.690Z,3.00
2018-09-29T21:08:42.626Z,3.20
2018-09-29T21:11:09.564Z,3.17
2018-09-29T21:13:36.536Z,3.40
2018-09-29T21:16:03.472Z,3.07
2018-09-29T21:18:32.160Z,3.43
2018-09-29T21:20:59.505Z,2.80
2018-09-29T21:23:26.446Z,2.97
2018-09-29T21:25:53.398Z,3.17
2018-09-29T21:28:20.403Z,2.40
2018-09-29T21:30:47.304Z,3.00
2018-09-29T21:33:14.258Z,3.27
2018-09-29T21:35:41.336Z,2.90
2018-09-29T21:38:08.260Z,2.70
2018-09-29T21:40:35.228Z,2.60
2018-09-29T21:43:02.147Z,3.03
2018-09-29T21:45:29.113Z,2.83
2018-09-29T21:47:56.113Z,2.80
2018-09-29T21:50:23.050Z,3.27
2018-09-29T21:52:50.001Z,2.97
2018-09-29T21:55:16.965Z,2.53
2018-09-29T21:57:43.903Z,2.70
2018-09-29T22:00:10.890Z,3.27
2018-09-29T22:02:37.845Z,3.53
2018-09-29T22:05:04.854Z,3.27
2018-09-29T22:07:31.797Z,2.53
2018-09-29T22:09:58.765Z,2.67
2018-09-29T22:12:25.709Z,3.53
2018-09-29T22:14:52.653Z,3.60
2018-09-29T22:17:19.593Z,3.83
2018-09-29T22:19:46.544Z,2.60
2018-09-29T22:22:13.497Z,2.40
2018-09-29T22:24:40.432Z,2.57
2018-09-29T22:27:07.385Z,2.57
2018-09-29T22:29:34.321Z,2.37
2018-09-29T22:32:01.349Z,2.57
2018-09-29T22:34:28.321Z,2.97
2018-09-29T22:36:55.285Z,2.97
2018-09-29T22:39:22.211Z,2.97
2018-09-29T22:41:49.160Z,2.77
2018-09-29T22:44:16.096Z,3.10
2018-09-29T22:46:43.038Z,2.70
2018-09-29T22:49:10.047Z,2.90
2018-09-29T22:51:37.100Z,2.50
2018-09-29T22:54:04.078Z,3.03
2018-09-29T22:56:31.043Z,3.07
2018-09-29T22:58:57.978Z,2.77
2018-09-29T23:01:24.933Z,2.90
2018-09-29T23:03:51.893Z,2.87
2018-09-29T23:06:18.837Z,2.80
2018-09-29T23:08:45.784Z,2.60
2018-09-29T23:11:12.753Z,2.90
2018-09-29T23:13:39.684Z,2.60
2018-09-29T23:16:06.838Z,3.00
2018-09-29T23:18:33.753Z,3.07
2018-09-29T23:21:00.720Z,2.70
2018-09-29T23:23:27.633Z,2.63
2018-09-29T23:25:54.626Z,2.80
2018-09-29T23:28:21.585Z,3.00
2018-09-29T23:30:48.548Z,3.20
2018-09-29T23:33:15.497Z,3.03
2018-09-29T23:35:42.439Z,2.97
2018-09-29T23:38:09.429Z,2.80
2018-09-29T23:40:36.372Z,3.00
2018-09-29T23:43:03.322Z,2.70
2018-09-29T23:45:30.342Z,3.23
2018-09-29T23:47:57.413Z,2.80
2018-09-29T23:50:24.334Z,3.20
2018-09-29T23:52:51.302Z,2.80
2018-09-29T23:55:18.266Z,3.30
2018-09-29T23:57:45.261Z,3.70
